Poteau, OK

2:59 PM CST on February 26, 2017 (GMT -0600)
Kerr

Weather History for KRKR - May, 2014

Change the Weather History Date:

Saturday, May 17, 2014

  Actual Average (KFSM) Record (KFSM)
Temperature  
Mean Temperature 57 °F -  
Max Temperature 63 °F 79 °F 92 °F (2001)
Min Temperature 51 °F 57 °F 41 °F (1973)
Degree Days  
Heating Degree Days 8    
Growing Degree Days 7 (Base 50)    
Moisture  
Dew Point 49 °F    
Average Humidity 73    
Maximum Humidity 86    
Minimum Humidity 57    
Precipitation  
Precipitation 0.00 in - - ()
Sea Level Pressure  
Sea Level Pressure 30.08 in    
Wind  
Wind Speed 8 mph (NNE)    
Max Wind Speed 20 mph    
Max Gust Speed 29 mph    
Visibility 10 miles    
Events Thunderstorm    
Averages and records for this station are not official NWS values.
T = Trace of Precipitation, MM = Missing Value Source: NWS Daily Summary

Daily Weather History Graph

Daily Weather History Graph

Search for Another Location

Airport or City:

Trip Planner

Search our weather history database for the weather conditions in past years. The results will help you decide how hot, cold, wet, or windy it might be!

Date:

Astronomy

May. 17, 2014 Rise Set
Actual Time 6:13 AM CDT 8:16 PM CDT
Civil Twilight 5:45 AM CDT 8:45 PM CDT
Nautical Twilight 5:10 AM CDT 9:19 PM CDT
Astronomical Twilight 4:33 AM CDT 9:56 PM CDT
Moon 11:19 PM CDT (5/17) 8:56 AM CDT (5/17)
Length of Visible Light 14h 59m
Length of Day
14h 03m
Waning Gibbous, 89% of the Moon is Illuminated
May 17
Waning Gibbous
May 21
Last Quarter
May 28
New
Jun 5
First Quarter
Jun 12
Full

Hourly Weather History & Observations

Time (CDT) Temp. Dew Point Humidity Pressure Visibility Wind Dir Wind Speed Gust Speed Precip Events Conditions
12:15 AM 57.6 °F 46.0 °F 65% 30.03 in 10.0 mi North 6.9 mph - N/A   Mostly Cloudy
12:35 AM 59.9 °F 44.4 °F 57% 30.03 in 10.0 mi Calm Calm - N/A   Overcast
12:55 AM 58.3 °F 46.0 °F 64% 30.03 in 10.0 mi Calm Calm - N/A Thunderstorm Overcast
1:15 AM 58.6 °F 46.8 °F 65% 30.04 in 10.0 mi North 3.5 mph - N/A   Overcast
1:35 AM 59.2 °F 45.1 °F 60% 30.05 in 10.0 mi North 10.4 mph - N/A   Overcast
1:55 AM 58.5 °F 45.1 °F 61% 30.08 in 10.0 mi North 18.4 mph 25.3 mph N/A   Overcast
2:15 AM 57.0 °F 45.1 °F 64% 30.09 in 10.0 mi North 19.6 mph 28.8 mph N/A Thunderstorm Overcast
2:35 AM 54.5 °F 45.3 °F 71% 30.08 in 10.0 mi NNE 16.1 mph 27.6 mph N/A   Scattered Clouds
2:55 AM 53.8 °F 46.4 °F 76% 30.10 in 10.0 mi NNE 15.0 mph 20.7 mph N/A Thunderstorm Scattered Clouds
3:15 AM 53.6 °F 46.6 °F 77% 30.11 in 10.0 mi NNE 10.4 mph 20.7 mph N/A   Scattered Clouds
3:35 AM 53.2 °F 46.4 °F 78% 30.11 in 10.0 mi NE 6.9 mph 16.1 mph N/A   Scattered Clouds
3:55 AM 53.6 °F 45.3 °F 74% 30.10 in 10.0 mi East 6.9 mph - N/A   Clear
4:15 AM 53.6 °F 45.1 °F 73% 30.09 in 10.0 mi ESE 8.1 mph - N/A   Clear
4:35 AM 52.7 °F 45.5 °F 76% 30.08 in 10.0 mi ESE 6.9 mph - N/A   Clear
4:55 AM 54.0 °F 44.1 °F 69% 30.07 in 10.0 mi ESE 8.1 mph - N/A   Clear
5:15 AM 54.3 °F 43.9 °F 68% 30.07 in 10.0 mi SE 5.8 mph - N/A   Clear
5:35 AM 51.3 °F 45.7 °F 81% 30.06 in 10.0 mi South 4.6 mph - N/A   Clear
5:55 AM 52.2 °F 45.9 °F 79% 30.04 in 10.0 mi South 4.6 mph - N/A   Clear
6:15 AM 52.0 °F 45.7 °F 79% 30.03 in 10.0 mi SSW 6.9 mph - N/A   Clear
6:35 AM 53.1 °F 45.5 °F 75% 30.03 in 10.0 mi SSW 6.9 mph - N/A   Clear
6:55 AM 53.4 °F 45.3 °F 74% 30.02 in 10.0 mi SSW 6.9 mph - N/A   Clear
7:15 AM 53.8 °F 45.5 °F 74% 30.02 in 10.0 mi WSW 5.8 mph - N/A   Clear
7:35 AM 55.0 °F 45.3 °F 70% 30.04 in 10.0 mi Calm Calm - N/A   Clear
7:55 AM 57.7 °F 44.6 °F 62% 30.04 in 10.0 mi Calm Calm - N/A   Clear
8:15 AM 56.5 °F 46.4 °F 69% 30.06 in 10.0 mi North 11.5 mph - N/A   Clear
8:35 AM 56.1 °F 48.9 °F 77% 30.07 in 10.0 mi NNE 6.9 mph - N/A   Clear
8:55 AM 55.6 °F 49.1 °F 79% 30.07 in 10.0 mi North 11.5 mph - N/A   Clear
9:15 AM 57.7 °F 50.0 °F 75% 30.08 in 10.0 mi North 11.5 mph 17.3 mph N/A   Clear
9:35 AM 58.8 °F 49.5 °F 71% 30.08 in 10.0 mi North 9.2 mph - N/A   Clear
9:55 AM 59.0 °F 49.8 °F 72% 30.09 in 10.0 mi NNE 8.1 mph 17.3 mph N/A   Clear
10:15 AM 59.5 °F 50.7 °F 73% 30.09 in 10.0 mi North 10.4 mph - N/A   Clear
10:35 AM 60.6 °F 51.1 °F 71% 30.09 in 10.0 mi North 11.5 mph - N/A   Clear
10:55 AM 59.7 °F 50.7 °F 72% 30.09 in 10.0 mi North 11.5 mph 18.4 mph N/A   Clear
11:15 AM 60.8 °F 50.9 °F 70% 30.09 in 10.0 mi North 11.5 mph - N/A   Clear
11:35 AM 61.3 °F 51.8 °F 71% 30.10 in 10.0 mi North 9.2 mph - N/A   Clear
11:55 AM 61.9 °F 51.8 °F 69% 30.09 in 10.0 mi North 10.4 mph 16.1 mph N/A   Clear
12:15 PM 62.1 °F 52.2 °F 70% 30.09 in 10.0 mi North 11.5 mph 18.4 mph N/A   Clear
12:35 PM 62.4 °F 52.2 °F 69% 30.09 in 10.0 mi North 13.8 mph 17.3 mph N/A   Clear
12:55 PM 61.5 °F 51.3 °F 69% 30.10 in 10.0 mi North 13.8 mph 17.3 mph N/A   Clear
1:15 PM 61.2 °F 50.9 °F 69% 30.09 in 10.0 mi NNE 11.5 mph 19.6 mph N/A   Clear
1:55 PM 61.7 °F 51.6 °F 69% 30.09 in 10.0 mi North 11.5 mph 16.1 mph N/A   Mostly Cloudy
2:15 PM 62.2 °F 51.3 °F 67% 30.09 in 10.0 mi North 10.4 mph - N/A   Overcast
2:35 PM 61.7 °F 51.6 °F 69% 30.09 in 10.0 mi North 9.2 mph - N/A   Overcast
2:55 PM 63.0 °F 51.3 °F 66% 30.09 in 10.0 mi NE 10.4 mph - N/A   Overcast
3:15 PM 63.1 °F 52.0 °F 67% 30.09 in 10.0 mi NNE 11.5 mph - N/A   Mostly Cloudy
3:35 PM 63.1 °F 52.0 °F 67% 30.08 in 10.0 mi North 9.2 mph - N/A   Scattered Clouds
3:55 PM 62.4 °F 52.2 °F 69% 30.09 in 10.0 mi North 9.2 mph - N/A   Scattered Clouds
4:15 PM 61.3 °F 51.3 °F 69% 30.08 in 10.0 mi NNE 6.9 mph - N/A   Mostly Cloudy
4:35 PM 60.8 °F 51.3 °F 71% 30.08 in 10.0 mi North 10.4 mph 17.3 mph N/A   Scattered Clouds
4:55 PM 60.3 °F 50.9 °F 71% 30.09 in 10.0 mi North 9.2 mph - N/A   Scattered Clouds
5:15 PM 60.1 °F 50.9 °F 72% 30.08 in 10.0 mi NE 8.1 mph - N/A   Mostly Cloudy
5:35 PM 59.9 °F 51.1 °F 73% 30.07 in 10.0 mi NE 4.6 mph - N/A   Scattered Clouds
5:55 PM 59.4 °F 52.0 °F 77% 30.08 in 10.0 mi North 6.9 mph - N/A   Scattered Clouds
6:15 PM 59.2 °F 51.3 °F 75% 30.08 in 10.0 mi NNE 5.8 mph - N/A   Mostly Cloudy
6:35 PM 59.4 °F 51.1 °F 74% 30.08 in 10.0 mi NE 5.8 mph - N/A   Scattered Clouds
6:55 PM 59.0 °F 51.8 °F 77% 30.08 in 10.0 mi North 4.6 mph - N/A   Clear
7:15 PM 58.8 °F 51.6 °F 77% 30.10 in 10.0 mi Calm Calm - N/A   Clear
7:35 PM 58.8 °F 51.8 °F 77% 30.10 in 10.0 mi North 3.5 mph - N/A   Clear
7:55 PM 58.1 °F 51.1 °F 77% 30.10 in 10.0 mi North 5.8 mph - N/A   Clear
8:15 PM 57.2 °F 50.9 °F 79% 30.11 in 10.0 mi North 8.1 mph - N/A   Clear
8:35 PM 56.7 °F 50.9 °F 81% 30.11 in 10.0 mi NNE 6.9 mph - N/A   Clear
8:55 PM 55.9 °F 50.5 °F 82% 30.12 in 10.0 mi NNE 4.6 mph - N/A   Clear
9:15 PM 55.4 °F 50.5 °F 84% 30.12 in 10.0 mi North 5.8 mph - N/A   Clear
9:35 PM 55.4 °F 50.7 °F 84% 30.13 in 10.0 mi NNE 5.8 mph - N/A   Clear
9:55 PM 55.0 °F 50.5 °F 85% 30.13 in 10.0 mi NE 3.5 mph - N/A   Mostly Cloudy
10:15 PM 55.4 °F 50.9 °F 85% 30.14 in 10.0 mi Calm Calm - N/A   Overcast
10:35 PM 55.4 °F 50.0 °F 82% 30.14 in 10.0 mi East 4.6 mph - N/A   Overcast
10:55 PM 54.9 °F 50.0 °F 84% 30.14 in 10.0 mi ENE 4.6 mph - N/A   Overcast
11:15 PM 55.4 °F 50.2 °F 83% 30.14 in 10.0 mi Calm Calm - N/A   Overcast
11:35 PM 54.9 °F 49.3 °F 81% 30.14 in 10.0 mi Calm Calm - N/A   Mostly Cloudy
11:55 PM 53.8 °F 49.6 °F 86% 30.15 in 10.0 mi NNE 3.5 mph - N/A   Scattered Clouds